createdAt,value
2023-04-13T00:07:14.742Z,17.1
2023-04-13T00:17:18.043Z,16.9
2023-04-13T00:27:21.512Z,17.1
2023-04-13T00:37:24.629Z,17.2
2023-04-13T00:47:27.984Z,17.2
2023-04-13T00:57:31.750Z,17.1
2023-04-13T01:07:35.083Z,17.1
2023-04-13T01:17:38.310Z,17.1
2023-04-13T01:27:41.664Z,17.1
2023-04-13T01:37:45.050Z,16.9
2023-04-13T01:47:48.100Z,17.1
2023-04-13T01:57:51.925Z,17.1
2023-04-13T02:07:55.187Z,17.1
2023-04-13T02:17:58.615Z,17.1
2023-04-13T02:28:01.701Z,17.2
2023-04-13T02:38:05.034Z,16.9
2023-04-13T02:48:08.360Z,17.2
2023-04-13T02:58:11.515Z,16.9
2023-04-13T03:06:11.598Z,16.9
2023-04-13T03:16:18.348Z,16.7
2023-04-13T03:26:19.046Z,16.9
2023-04-13T03:36:22.775Z,16.9
2023-04-13T03:46:26.521Z,16.7
2023-04-13T03:56:30.223Z,16.8
2023-04-13T04:06:37.085Z,16.8
2023-04-13T04:16:48.091Z,17.4
2023-04-13T04:27:00.064Z,17.7
2023-04-13T04:37:20.017Z,17.6
2023-04-13T04:47:26.316Z,17.6
2023-04-13T04:57:40.628Z,17.8
2023-04-13T05:07:54.176Z,18
2023-04-13T05:18:08.277Z,17.6
2023-04-13T05:28:22.311Z,17.5
2023-04-13T05:38:36.738Z,17.9
2023-04-13T05:48:51.333Z,17.8
2023-04-13T05:59:06.278Z,17.9
2023-04-13T06:09:20.901Z,17.8
2023-04-13T06:19:36.051Z,17.9
2023-04-13T06:29:52.520Z,17.8
2023-04-13T06:40:08.979Z,17.9
2023-04-13T06:50:23.458Z,18
2023-04-13T07:00:37.108Z,15.8
2023-04-13T07:10:53.946Z,17.6
2023-04-13T07:21:10.036Z,15.8
2023-04-13T07:31:24.915Z,18.1
2023-04-13T07:41:37.669Z,17.8
2023-04-13T07:51:50.372Z,17.6
2023-04-13T08:02:03.392Z,17.9
2023-04-13T08:12:16.799Z,18.2
2023-04-13T08:22:30.777Z,17.7
2023-04-13T08:32:43.062Z,18
2023-04-13T08:42:55.954Z,18.1
2023-04-13T08:53:07.726Z,18.2
2023-04-13T09:06:16.897Z,18.1
2023-04-13T09:16:29.656Z,18.1
2023-04-13T09:26:42.896Z,17.9
2023-04-13T09:37:01.944Z,17.8
2023-04-13T09:47:18.029Z,18
2023-04-13T09:57:35.179Z,17.9
2023-04-13T10:07:51.672Z,18.1
2023-04-13T10:18:09.302Z,18.4
2023-04-13T10:28:26.747Z,18.3
2023-04-13T10:38:43.850Z,18.1
2023-04-13T10:49:00.856Z,18.3
2023-04-13T10:59:17.407Z,18.1
2023-04-13T11:09:31.021Z,18.4
2023-04-13T11:19:42.729Z,18.8
2023-04-13T11:29:53.926Z,18.6
2023-04-13T11:39:59.540Z,18.4
2023-04-13T11:50:03.361Z,18.3
2023-04-13T12:00:07.023Z,18.8
2023-04-13T12:10:13.404Z,18.1
2023-04-13T12:20:15.593Z,18.3
2023-04-13T12:30:18.489Z,18.3
2023-04-13T12:40:21.485Z,18.3
2023-04-13T12:50:22.199Z,18.8
2023-04-13T13:00:23.041Z,18.4
2023-04-13T13:10:29.422Z,18.4
2023-04-13T13:20:25.287Z,18.2
2023-04-13T13:30:27.105Z,18.3
2023-04-13T13:40:30.591Z,18.3
2023-04-13T13:50:35.048Z,18.4
2023-04-13T14:00:35.997Z,18.4
2023-04-13T14:10:39.717Z,18.6
2023-04-13T14:20:41.346Z,18.6
2023-04-13T14:30:43.056Z,18.6
2023-04-13T14:40:42.263Z,18.6
2023-04-13T14:50:41.998Z,18.6
2023-04-13T15:06:08.150Z,18.8
2023-04-13T15:16:07.246Z,18.4
2023-04-13T15:26:06.770Z,18.4
2023-04-13T15:36:06.948Z,18.6
2023-04-13T15:46:05.726Z,18.6
2023-04-13T15:56:04.952Z,18.6
2023-04-13T16:06:05.911Z,18.6
2023-04-13T16:16:07.124Z,18.4
2023-04-13T16:26:08.067Z,18.3
2023-04-13T16:36:10.006Z,18.6
2023-04-13T16:46:11.084Z,18.5
2023-04-13T16:56:11.942Z,18.3
2023-04-13T17:06:11.723Z,18.6
2023-04-13T17:16:11.845Z,18.3
2023-04-13T17:26:11.409Z,18.6
2023-04-13T17:36:10.932Z,18.2
2023-04-13T17:46:10.792Z,18.6
2023-04-13T17:56:10.061Z,18.6
2023-04-13T18:06:09.572Z,18.3
2023-04-13T18:16:10.073Z,18.3
2023-04-13T18:26:08.604Z,18.6
2023-04-13T18:36:08.123Z,18.3
2023-04-13T18:46:07.499Z,18.6
2023-04-13T18:56:07.067Z,18.6
2023-04-13T19:06:06.465Z,18.6
2023-04-13T19:16:05.318Z,18.6
2023-04-13T19:26:04.907Z,18.6
2023-04-13T19:36:04.512Z,18.6
2023-04-13T19:46:03.572Z,18.6
2023-04-13T19:56:02.899Z,18.6
2023-04-13T20:06:02.303Z,18.4
2023-04-13T20:16:02.968Z,18.4
2023-04-13T20:26:04.087Z,18.3
2023-04-13T20:36:04.352Z,18.3
2023-04-13T20:46:05.627Z,18.3
2023-04-13T20:56:06.456Z,18.3
2023-04-13T21:06:09.201Z,18.3
2023-04-13T21:16:12.014Z,18.1
2023-04-13T21:26:13.809Z,18.1
2023-04-13T21:46:17.109Z,18.2
2023-04-13T21:56:18.838Z,18.1
2023-04-13T22:06:21.589Z,18.1
2023-04-13T22:16:24.873Z,18.3
2023-04-13T22:26:27.686Z,18.1
2023-04-13T22:36:31.443Z,18.1
2023-04-13T22:46:33.052Z,18
2023-04-13T22:56:36.032Z,18.1
2023-04-13T23:06:36.689Z,18.2
2023-04-13T23:16:35.880Z,18.6
2023-04-13T23:26:35.404Z,18.6
2023-04-13T23:36:34.957Z,18.6
2023-04-13T23:46:34.268Z,18.6
2023-04-13T23:56:34.604Z,18.6
